sensor_id;sensor_type;location;lat;lon;timestamp;P1;durP1;ratioP1;P2;durP2;ratioP2
71265;SDS011;59030;52.052;8.550;2023-07-31T00:02:10;0.90;;;0.90;;
71265;SDS011;59030;52.052;8.550;2023-07-31T00:04:37;2.00;;;1.00;;
71265;SDS011;59030;52.052;8.550;2023-07-31T00:07:05;0.70;;;0.70;;
71265;SDS011;59030;52.052;8.550;2023-07-31T00:09:32;0.60;;;0.60;;
71265;SDS011;59030;52.052;8.550;2023-07-31T00:11:59;0.60;;;0.57;;
71265;SDS011;59030;52.052;8.550;2023-07-31T00:14:26;0.77;;;0.77;;
71265;SDS011;59030;52.052;8.550;2023-07-31T00:16:54;0.93;;;0.70;;
71265;SDS011;59030;52.052;8.550;2023-07-31T00:19:21;0.93;;;0.93;;
71265;SDS011;59030;52.052;8.550;2023-07-31T00:21:48;1.10;;;1.00;;
71265;SDS011;59030;52.052;8.550;2023-07-31T00:24:16;0.93;;;0.93;;
71265;SDS011;59030;52.052;8.550;2023-07-31T00:26:43;1.00;;;1.00;;
71265;SDS011;59030;52.052;8.550;2023-07-31T00:29:10;1.37;;;1.27;;
71265;SDS011;59030;52.052;8.550;2023-07-31T00:31:37;0.90;;;0.90;;
71265;SDS011;59030;52.052;8.550;2023-07-31T00:34:05;1.30;;;1.23;;
71265;SDS011;59030;52.052;8.550;2023-07-31T00:36:32;1.20;;;1.10;;
71265;SDS011;59030;52.052;8.550;2023-07-31T00:38:59;1.33;;;1.23;;
71265;SDS011;59030;52.052;8.550;2023-07-31T00:41:26;1.30;;;1.30;;
71265;SDS011;59030;52.052;8.550;2023-07-31T00:43:53;1.50;;;1.40;;
71265;SDS011;59030;52.052;8.550;2023-07-31T00:46:21;1.67;;;1.57;;
71265;SDS011;59030;52.052;8.550;2023-07-31T00:48:48;1.50;;;1.40;;
71265;SDS011;59030;52.052;8.550;2023-07-31T00:51:15;1.43;;;1.33;;
71265;SDS011;59030;52.052;8.550;2023-07-31T00:53:42;1.20;;;1.20;;
71265;SDS011;59030;52.052;8.550;2023-07-31T00:56:10;1.33;;;1.27;;
71265;SDS011;59030;52.052;8.550;2023-07-31T00:58:37;1.40;;;1.30;;
71265;SDS011;59030;52.052;8.550;2023-07-31T01:01:05;1.60;;;1.50;;
71265;SDS011;59030;52.052;8.550;2023-07-31T01:03:32;1.53;;;1.43;;
71265;SDS011;59030;52.052;8.550;2023-07-31T01:06:02;1.57;;;1.47;;
71265;SDS011;59030;52.052;8.550;2023-07-31T01:08:36;1.60;;;1.50;;
71265;SDS011;59030;52.052;8.550;2023-07-31T01:11:00;1.60;;;1.50;;
71265;SDS011;59030;52.052;8.550;2023-07-31T01:13:28;1.87;;;1.40;;
71265;SDS011;59030;52.052;8.550;2023-07-31T01:15:55;1.57;;;1.47;;
71265;SDS011;59030;52.052;8.550;2023-07-31T01:18:22;1.73;;;1.63;;
71265;SDS011;59030;52.052;8.550;2023-07-31T01:20:52;1.60;;;1.50;;
71265;SDS011;59030;52.052;8.550;2023-07-31T01:26:10;1.40;;;1.30;;
71265;SDS011;59030;52.052;8.550;2023-07-31T01:28:46;1.70;;;1.60;;
71265;SDS011;59030;52.052;8.550;2023-07-31T01:31:09;1.77;;;1.50;;
71265;SDS011;59030;52.052;8.550;2023-07-31T01:33:38;1.50;;;1.40;;
71265;SDS011;59030;52.052;8.550;2023-07-31T01:36:06;2.40;;;1.50;;
71265;SDS011;59030;52.052;8.550;2023-07-31T01:38:34;1.57;;;1.47;;
71265;SDS011;59030;52.052;8.550;2023-07-31T01:41:01;2.03;;;1.60;;
71265;SDS011;59030;52.052;8.550;2023-07-31T01:43:29;2.00;;;1.47;;
71265;SDS011;59030;52.052;8.550;2023-07-31T01:45:56;3.27;;;1.67;;
71265;SDS011;59030;52.052;8.550;2023-07-31T01:48:23;1.67;;;1.10;;
71265;SDS011;59030;52.052;8.550;2023-07-31T01:50:50;1.73;;;1.43;;
71265;SDS011;59030;52.052;8.550;2023-07-31T01:53:17;1.43;;;1.33;;
71265;SDS011;59030;52.052;8.550;2023-07-31T01:55:45;1.57;;;1.23;;
71265;SDS011;59030;52.052;8.550;2023-07-31T01:58:12;1.63;;;1.20;;
71265;SDS011;59030;52.052;8.550;2023-07-31T02:00:39;1.30;;;1.20;;
71265;SDS011;59030;52.052;8.550;2023-07-31T02:03:06;1.20;;;1.10;;
71265;SDS011;59030;52.052;8.550;2023-07-31T02:05:33;1.03;;;0.97;;
71265;SDS011;59030;52.052;8.550;2023-07-31T02:08:00;1.27;;;1.17;;
71265;SDS011;59030;52.052;8.550;2023-07-31T02:10:28;0.90;;;0.90;;
71265;SDS011;59030;52.052;8.550;2023-07-31T02:12:57;1.23;;;1.13;;
71265;SDS011;59030;52.052;8.550;2023-07-31T02:15:25;1.50;;;1.20;;
71265;SDS011;59030;52.052;8.550;2023-07-31T02:17:52;1.10;;;1.00;;
71265;SDS011;59030;52.052;8.550;2023-07-31T02:20:19;0.73;;;0.73;;
71265;SDS011;59030;52.052;8.550;2023-07-31T02:22:46;1.23;;;0.90;;
71265;SDS011;59030;52.052;8.550;2023-07-31T02:25:13;1.13;;;1.03;;
71265;SDS011;59030;52.052;8.550;2023-07-31T02:27:41;0.90;;;0.80;;
71265;SDS011;59030;52.052;8.550;2023-07-31T02:30:09;1.00;;;1.00;;
71265;SDS011;59030;52.052;8.550;2023-07-31T02:32:36;0.93;;;0.80;;
71265;SDS011;59030;52.052;8.550;2023-07-31T02:35:04;0.93;;;0.70;;
71265;SDS011;59030;52.052;8.550;2023-07-31T02:37:31;0.60;;;0.60;;
71265;SDS011;59030;52.052;8.550;2023-07-31T02:39:58;0.70;;;0.70;;
71265;SDS011;59030;52.052;8.550;2023-07-31T02:42:25;0.70;;;0.70;;
71265;SDS011;59030;52.052;8.550;2023-07-31T02:44:53;0.60;;;0.60;;
71265;SDS011;59030;52.052;8.550;2023-07-31T02:47:22;0.93;;;0.80;;
71265;SDS011;59030;52.052;8.550;2023-07-31T02:49:49;0.80;;;0.80;;
71265;SDS011;59030;52.052;8.550;2023-07-31T02:52:18;0.73;;;0.60;;
71265;SDS011;59030;52.052;8.550;2023-07-31T02:54:45;0.53;;;0.53;;
71265;SDS011;59030;52.052;8.550;2023-07-31T02:57:13;0.97;;;0.60;;
71265;SDS011;59030;52.052;8.550;2023-07-31T02:59:40;0.67;;;0.50;;
71265;SDS011;59030;52.052;8.550;2023-07-31T03:02:07;0.40;;;0.40;;
71265;SDS011;59030;52.052;8.550;2023-07-31T03:04:34;0.50;;;0.50;;
71265;SDS011;59030;52.052;8.550;2023-07-31T03:07:01;0.50;;;0.50;;
71265;SDS011;59030;52.052;8.550;2023-07-31T03:09:29;1.07;;;0.80;;
71265;SDS011;59030;52.052;8.550;2023-07-31T03:11:56;0.63;;;0.60;;
71265;SDS011;59030;52.052;8.550;2023-07-31T03:14:23;1.23;;;0.60;;
71265;SDS011;59030;52.052;8.550;2023-07-31T03:16:52;0.57;;;0.57;;
71265;SDS011;59030;52.052;8.550;2023-07-31T03:19:19;0.73;;;0.60;;
71265;SDS011;59030;52.052;8.550;2023-07-31T03:21:46;1.27;;;1.17;;
71265;SDS011;59030;52.052;8.550;2023-07-31T03:24:13;2.13;;;1.67;;
71265;SDS011;59030;52.052;8.550;2023-07-31T03:26:41;1.80;;;1.67;;
71265;SDS011;59030;52.052;8.550;2023-07-31T03:29:08;4.73;;;2.37;;
71265;SDS011;59030;52.052;8.550;2023-07-31T03:31:35;2.87;;;2.50;;
71265;SDS011;59030;52.052;8.550;2023-07-31T03:34:02;5.33;;;3.00;;
71265;SDS011;59030;52.052;8.550;2023-07-31T03:36:29;3.80;;;3.23;;
71265;SDS011;59030;52.052;8.550;2023-07-31T03:38:57;4.80;;;3.57;;
71265;SDS011;59030;52.052;8.550;2023-07-31T03:41:24;4.53;;;2.83;;
71265;SDS011;59030;52.052;8.550;2023-07-31T03:43:52;4.90;;;3.77;;
71265;SDS011;59030;52.052;8.550;2023-07-31T03:46:19;6.13;;;3.97;;
71265;SDS011;59030;52.052;8.550;2023-07-31T03:48:46;6.27;;;4.03;;
71265;SDS011;59030;52.052;8.550;2023-07-31T03:51:13;5.83;;;4.07;;
71265;SDS011;59030;52.052;8.550;2023-07-31T03:53:41;6.03;;;4.03;;
71265;SDS011;59030;52.052;8.550;2023-07-31T03:56:08;5.57;;;4.13;;
71265;SDS011;59030;52.052;8.550;2023-07-31T03:58:35;7.97;;;4.40;;
71265;SDS011;59030;52.052;8.550;2023-07-31T04:01:03;7.60;;;4.67;;
71265;SDS011;59030;52.052;8.550;2023-07-31T04:03:30;5.10;;;4.20;;
71265;SDS011;59030;52.052;8.550;2023-07-31T04:05:58;8.43;;;4.87;;
71265;SDS011;59030;52.052;8.550;2023-07-31T04:08:25;8.30;;;4.20;;
71265;SDS011;59030;52.052;8.550;2023-07-31T04:10:53;6.77;;;4.57;;
71265;SDS011;59030;52.052;8.550;2023-07-31T04:13:21;6.10;;;4.53;;
71265;SDS011;59030;52.052;8.550;2023-07-31T04:15:49;8.33;;;5.23;;
71265;SDS011;59030;52.052;8.550;2023-07-31T04:18:16;6.70;;;4.37;;
71265;SDS011;59030;52.052;8.550;2023-07-31T04:20:43;7.10;;;5.07;;
71265;SDS011;59030;52.052;8.550;2023-07-31T04:23:11;9.67;;;5.10;;
71265;SDS011;59030;52.052;8.550;2023-07-31T04:25:38;8.87;;;4.40;;
71265;SDS011;59030;52.052;8.550;2023-07-31T04:28:05;12.80;;;5.50;;
71265;SDS011;59030;52.052;8.550;2023-07-31T04:30:33;7.17;;;4.67;;
71265;SDS011;59030;52.052;8.550;2023-07-31T04:33:00;10.93;;;4.80;;
71265;SDS011;59030;52.052;8.550;2023-07-31T04:35:28;8.50;;;4.97;;
71265;SDS011;59030;52.052;8.550;2023-07-31T04:37:55;7.40;;;4.70;;
71265;SDS011;59030;52.052;8.550;2023-07-31T04:40:22;7.43;;;5.10;;
71265;SDS011;59030;52.052;8.550;2023-07-31T04:42:49;11.13;;;5.00;;
71265;SDS011;59030;52.052;8.550;2023-07-31T04:45:16;7.27;;;4.90;;
71265;SDS011;59030;52.052;8.550;2023-07-31T04:47:44;7.70;;;4.60;;
71265;SDS011;59030;52.052;8.550;2023-07-31T04:50:11;10.70;;;5.07;;
71265;SDS011;59030;52.052;8.550;2023-07-31T04:52:38;6.73;;;5.03;;
71265;SDS011;59030;52.052;8.550;2023-07-31T04:55:05;8.80;;;4.83;;
71265;SDS011;59030;52.052;8.550;2023-07-31T04:57:33;9.83;;;5.10;;
71265;SDS011;59030;52.052;8.550;2023-07-31T05:00:00;9.67;;;4.37;;
71265;SDS011;59030;52.052;8.550;2023-07-31T05:02:27;7.93;;;4.83;;
71265;SDS011;59030;52.052;8.550;2023-07-31T05:04:54;10.60;;;5.03;;
71265;SDS011;59030;52.052;8.550;2023-07-31T05:07:21;7.87;;;4.47;;
71265;SDS011;59030;52.052;8.550;2023-07-31T05:09:49;8.60;;;4.57;;
71265;SDS011;59030;52.052;8.550;2023-07-31T05:12:16;7.97;;;4.57;;
71265;SDS011;59030;52.052;8.550;2023-07-31T05:14:43;6.47;;;4.00;;
71265;SDS011;59030;52.052;8.550;2023-07-31T05:17:10;9.17;;;4.40;;
71265;SDS011;59030;52.052;8.550;2023-07-31T05:19:38;7.63;;;4.07;;
71265;SDS011;59030;52.052;8.550;2023-07-31T05:22:05;7.57;;;3.90;;
71265;SDS011;59030;52.052;8.550;2023-07-31T05:24:32;5.70;;;3.27;;
71265;SDS011;59030;52.052;8.550;2023-07-31T05:27:00;4.87;;;3.43;;
71265;SDS011;59030;52.052;8.550;2023-07-31T05:29:27;7.10;;;3.50;;
71265;SDS011;59030;52.052;8.550;2023-07-31T05:31:54;9.43;;;3.37;;
71265;SDS011;59030;52.052;8.550;2023-07-31T05:34:22;4.87;;;3.33;;
71265;SDS011;59030;52.052;8.550;2023-07-31T05:36:49;7.63;;;3.13;;
71265;SDS011;59030;52.052;8.550;2023-07-31T05:39:16;8.10;;;3.30;;
71265;SDS011;59030;52.052;8.550;2023-07-31T05:41:46;6.83;;;3.37;;
71265;SDS011;59030;52.052;8.550;2023-07-31T05:44:13;6.10;;;2.90;;
71265;SDS011;59030;52.052;8.550;2023-07-31T05:46:40;7.40;;;3.00;;
71265;SDS011;59030;52.052;8.550;2023-07-31T05:49:07;5.23;;;2.90;;
71265;SDS011;59030;52.052;8.550;2023-07-31T05:51:34;7.60;;;3.10;;
71265;SDS011;59030;52.052;8.550;2023-07-31T05:54:02;4.53;;;3.10;;
71265;SDS011;59030;52.052;8.550;2023-07-31T05:56:29;8.07;;;3.30;;
71265;SDS011;59030;52.052;8.550;2023-07-31T05:58:57;5.87;;;2.97;;
71265;SDS011;59030;52.052;8.550;2023-07-31T06:01:24;4.20;;;2.80;;
71265;SDS011;59030;52.052;8.550;2023-07-31T06:03:52;5.63;;;2.93;;
71265;SDS011;59030;52.052;8.550;2023-07-31T06:06:19;4.63;;;2.70;;
71265;SDS011;59030;52.052;8.550;2023-07-31T06:08:46;7.63;;;3.10;;
71265;SDS011;59030;52.052;8.550;2023-07-31T06:11:13;5.77;;;2.83;;
71265;SDS011;59030;52.052;8.550;2023-07-31T06:13:40;3.87;;;2.93;;
71265;SDS011;59030;52.052;8.550;2023-07-31T06:16:09;6.57;;;3.37;;
71265;SDS011;59030;52.052;8.550;2023-07-31T06:18:38;4.60;;;2.90;;
71265;SDS011;59030;52.052;8.550;2023-07-31T06:21:05;5.23;;;3.07;;
71265;SDS011;59030;52.052;8.550;2023-07-31T06:23:32;5.50;;;2.90;;
71265;SDS011;59030;52.052;8.550;2023-07-31T06:26:00;5.37;;;2.90;;
71265;SDS011;59030;52.052;8.550;2023-07-31T06:28:27;4.30;;;2.77;;
71265;SDS011;59030;52.052;8.550;2023-07-31T06:30:55;7.63;;;2.80;;
71265;SDS011;59030;52.052;8.550;2023-07-31T06:33:22;3.97;;;2.90;;
71265;SDS011;59030;52.052;8.550;2023-07-31T06:35:50;5.77;;;3.03;;
71265;SDS011;59030;52.052;8.550;2023-07-31T06:38:18;6.87;;;3.13;;
71265;SDS011;59030;52.052;8.550;2023-07-31T06:40:46;4.40;;;2.90;;
71265;SDS011;59030;52.052;8.550;2023-07-31T06:43:13;3.40;;;2.53;;
71265;SDS011;59030;52.052;8.550;2023-07-31T06:45:40;8.70;;;2.90;;
71265;SDS011;59030;52.052;8.550;2023-07-31T06:48:07;4.90;;;2.90;;
71265;SDS011;59030;52.052;8.550;2023-07-31T06:50:35;5.10;;;2.97;;
71265;SDS011;59030;52.052;8.550;2023-07-31T06:53:03;6.23;;;3.10;;
71265;SDS011;59030;52.052;8.550;2023-07-31T06:55:30;3.50;;;2.43;;
71265;SDS011;59030;52.052;8.550;2023-07-31T06:57:57;3.80;;;2.43;;
71265;SDS011;59030;52.052;8.550;2023-07-31T07:00:25;5.37;;;2.87;;
71265;SDS011;59030;52.052;8.550;2023-07-31T07:02:52;6.07;;;2.67;;
71265;SDS011;59030;52.052;8.550;2023-07-31T07:05:19;7.27;;;2.90;;
71265;SDS011;59030;52.052;8.550;2023-07-31T07:07:48;5.23;;;2.60;;
71265;SDS011;59030;52.052;8.550;2023-07-31T07:10:16;6.63;;;3.03;;
71265;SDS011;59030;52.052;8.550;2023-07-31T07:12:43;4.70;;;2.50;;
71265;SDS011;59030;52.052;8.550;2023-07-31T07:15:10;5.43;;;2.53;;
71265;SDS011;59030;52.052;8.550;2023-07-31T07:17:38;4.63;;;2.70;;
71265;SDS011;59030;52.052;8.550;2023-07-31T07:20:06;7.10;;;3.03;;
71265;SDS011;59030;52.052;8.550;2023-07-31T07:22:34;5.67;;;3.10;;
71265;SDS011;59030;52.052;8.550;2023-07-31T07:25:01;5.23;;;3.03;;
71265;SDS011;59030;52.052;8.550;2023-07-31T07:27:29;4.33;;;2.80;;
71265;SDS011;59030;52.052;8.550;2023-07-31T07:29:56;4.30;;;3.10;;
71265;SDS011;59030;52.052;8.550;2023-07-31T07:32:23;5.47;;;3.30;;
71265;SDS011;59030;52.052;8.550;2023-07-31T07:34:51;6.33;;;3.10;;
71265;SDS011;59030;52.052;8.550;2023-07-31T07:37:18;4.13;;;2.67;;
71265;SDS011;59030;52.052;8.550;2023-07-31T07:39:45;4.60;;;2.87;;
71265;SDS011;59030;52.052;8.550;2023-07-31T07:42:13;5.63;;;3.20;;
71265;SDS011;59030;52.052;8.550;2023-07-31T07:44:40;6.80;;;3.10;;
71265;SDS011;59030;52.052;8.550;2023-07-31T07:47:07;4.73;;;3.00;;
71265;SDS011;59030;52.052;8.550;2023-07-31T07:49:35;5.60;;;3.13;;
71265;SDS011;59030;52.052;8.550;2023-07-31T07:52:02;5.30;;;3.00;;
71265;SDS011;59030;52.052;8.550;2023-07-31T07:54:30;4.17;;;3.00;;
71265;SDS011;59030;52.052;8.550;2023-07-31T07:56:58;5.87;;;3.20;;
71265;SDS011;59030;52.052;8.550;2023-07-31T07:59:25;5.53;;;3.10;;
71265;SDS011;59030;52.052;8.550;2023-07-31T08:01:52;3.30;;;2.60;;
71265;SDS011;59030;52.052;8.550;2023-07-31T08:04:20;5.43;;;2.77;;
71265;SDS011;59030;52.052;8.550;2023-07-31T08:06:47;3.07;;;2.57;;
71265;SDS011;59030;52.052;8.550;2023-07-31T08:09:14;4.00;;;2.53;;
71265;SDS011;59030;52.052;8.550;2023-07-31T08:11:41;3.13;;;2.20;;
71265;SDS011;59030;52.052;8.550;2023-07-31T08:14:09;2.53;;;2.30;;
71265;SDS011;59030;52.052;8.550;2023-07-31T08:16:36;3.67;;;2.17;;
71265;SDS011;59030;52.052;8.550;2023-07-31T08:19:03;2.50;;;2.30;;
71265;SDS011;59030;52.052;8.550;2023-07-31T08:21:30;2.27;;;2.07;;
71265;SDS011;59030;52.052;8.550;2023-07-31T08:23:58;2.57;;;1.90;;
71265;SDS011;59030;52.052;8.550;2023-07-31T08:26:25;5.00;;;2.17;;
71265;SDS011;59030;52.052;8.550;2023-07-31T08:28:52;3.17;;;2.23;;
71265;SDS011;59030;52.052;8.550;2023-07-31T08:31:20;2.70;;;2.00;;
71265;SDS011;59030;52.052;8.550;2023-07-31T08:33:47;2.03;;;1.87;;
71265;SDS011;59030;52.052;8.550;2023-07-31T08:36:14;2.67;;;2.23;;
71265;SDS011;59030;52.052;8.550;2023-07-31T08:38:41;3.50;;;2.43;;
71265;SDS011;59030;52.052;8.550;2023-07-31T08:41:08;2.80;;;2.10;;
71265;SDS011;59030;52.052;8.550;2023-07-31T08:43:36;3.00;;;2.20;;
71265;SDS011;59030;52.052;8.550;2023-07-31T08:46:04;2.93;;;2.30;;
71265;SDS011;59030;52.052;8.550;2023-07-31T08:48:31;2.70;;;2.40;;
71265;SDS011;59030;52.052;8.550;2023-07-31T08:50:59;3.07;;;2.60;;
71265;SDS011;59030;52.052;8.550;2023-07-31T08:53:26;3.87;;;2.47;;
71265;SDS011;59030;52.052;8.550;2023-07-31T08:55:53;3.70;;;2.30;;
71265;SDS011;59030;52.052;8.550;2023-07-31T08:58:22;2.67;;;2.37;;
71265;SDS011;59030;52.052;8.550;2023-07-31T09:00:50;2.67;;;2.47;;
71265;SDS011;59030;52.052;8.550;2023-07-31T09:03:18;3.70;;;2.80;;
71265;SDS011;59030;52.052;8.550;2023-07-31T09:05:46;3.20;;;2.43;;
71265;SDS011;59030;52.052;8.550;2023-07-31T09:08:14;2.73;;;2.40;;
71265;SDS011;59030;52.052;8.550;2023-07-31T09:10:42;2.40;;;2.20;;
71265;SDS011;59030;52.052;8.550;2023-07-31T09:13:09;3.77;;;2.27;;
71265;SDS011;59030;52.052;8.550;2023-07-31T09:15:37;3.70;;;2.37;;
71265;SDS011;59030;52.052;8.550;2023-07-31T09:18:04;2.97;;;2.50;;
71265;SDS011;59030;52.052;8.550;2023-07-31T09:20:32;2.13;;;1.93;;
71265;SDS011;59030;52.052;8.550;2023-07-31T09:23:05;2.43;;;2.23;;
71265;SDS011;59030;52.052;8.550;2023-07-31T09:25:33;2.20;;;1.90;;
71265;SDS011;59030;52.052;8.550;2023-07-31T09:28:01;2.97;;;2.40;;
71265;SDS011;59030;52.052;8.550;2023-07-31T09:30:29;3.33;;;2.20;;
71265;SDS011;59030;52.052;8.550;2023-07-31T09:33:00;2.87;;;2.10;;
71265;SDS011;59030;52.052;8.550;2023-07-31T09:35:28;2.73;;;2.33;;
71265;SDS011;59030;52.052;8.550;2023-07-31T09:37:57;4.53;;;2.70;;
71265;SDS011;59030;52.052;8.550;2023-07-31T09:40:30;3.10;;;2.33;;
71265;SDS011;59030;52.052;8.550;2023-07-31T09:42:58;4.03;;;2.50;;
71265;SDS011;59030;52.052;8.550;2023-07-31T09:45:26;2.77;;;2.23;;
71265;SDS011;59030;52.052;8.550;2023-07-31T09:47:54;2.37;;;2.17;;
71265;SDS011;59030;52.052;8.550;2023-07-31T09:50:21;2.40;;;2.20;;
71265;SDS011;59030;52.052;8.550;2023-07-31T09:52:49;2.40;;;2.20;;
71265;SDS011;59030;52.052;8.550;2023-07-31T09:55:16;2.73;;;2.10;;
71265;SDS011;59030;52.052;8.550;2023-07-31T09:57:45;2.90;;;1.93;;
71265;SDS011;59030;52.052;8.550;2023-07-31T10:00:13;3.03;;;2.00;;
71265;SDS011;59030;52.052;8.550;2023-07-31T10:02:41;2.83;;;1.90;;
71265;SDS011;59030;52.052;8.550;2023-07-31T10:05:10;2.33;;;2.13;;
71265;SDS011;59030;52.052;8.550;2023-07-31T10:07:39;2.20;;;2.00;;
71265;SDS011;59030;52.052;8.550;2023-07-31T10:10:08;2.40;;;2.17;;
71265;SDS011;59030;52.052;8.550;2023-07-31T10:12:36;2.33;;;2.13;;
71265;SDS011;59030;52.052;8.550;2023-07-31T10:15:04;1.97;;;1.77;;
71265;SDS011;59030;52.052;8.550;2023-07-31T10:17:31;3.30;;;2.00;;
71265;SDS011;59030;52.052;8.550;2023-07-31T10:20:01;1.90;;;1.77;;
71265;SDS011;59030;52.052;8.550;2023-07-31T10:22:30;2.10;;;1.90;;
71265;SDS011;59030;52.052;8.550;2023-07-31T10:24:58;1.93;;;1.60;;
71265;SDS011;59030;52.052;8.550;2023-07-31T10:27:26;3.97;;;1.67;;
71265;SDS011;59030;52.052;8.550;2023-07-31T10:29:54;2.60;;;1.67;;
71265;SDS011;59030;52.052;8.550;2023-07-31T10:32:21;2.33;;;1.60;;
71265;SDS011;59030;52.052;8.550;2023-07-31T10:34:50;2.07;;;1.60;;
71265;SDS011;59030;52.052;8.550;2023-07-31T10:37:21;1.17;;;1.17;;
71265;SDS011;59030;52.052;8.550;2023-07-31T10:39:58;1.73;;;1.40;;
71265;SDS011;59030;52.052;8.550;2023-07-31T10:42:29;1.57;;;1.40;;
71265;SDS011;59030;52.052;8.550;2023-07-31T10:44:58;1.33;;;1.23;;
71265;SDS011;59030;52.052;8.550;2023-07-31T10:47:25;1.00;;;1.00;;
71265;SDS011;59030;52.052;8.550;2023-07-31T10:49:53;1.30;;;1.20;;
71265;SDS011;59030;52.052;8.550;2023-07-31T10:52:22;1.33;;;1.23;;
71265;SDS011;59030;52.052;8.550;2023-07-31T10:54:49;1.60;;;1.50;;
71265;SDS011;59030;52.052;8.550;2023-07-31T10:57:20;1.17;;;1.13;;
71265;SDS011;59030;52.052;8.550;2023-07-31T10:59:48;1.50;;;1.40;;
71265;SDS011;59030;52.052;8.550;2023-07-31T11:02:25;1.40;;;1.30;;
71265;SDS011;59030;52.052;8.550;2023-07-31T11:05:07;2.10;;;1.20;;
71265;SDS011;59030;52.052;8.550;2023-07-31T11:07:47;1.57;;;1.27;;
71265;SDS011;59030;52.052;8.550;2023-07-31T11:10:16;1.20;;;1.10;;
71265;SDS011;59030;52.052;8.550;2023-07-31T11:12:43;1.40;;;1.30;;
71265;SDS011;59030;52.052;8.550;2023-07-31T11:15:11;1.20;;;1.10;;
71265;SDS011;59030;52.052;8.550;2023-07-31T11:17:39;1.07;;;1.00;;
71265;SDS011;59030;52.052;8.550;2023-07-31T11:20:07;1.47;;;1.33;;
71265;SDS011;59030;52.052;8.550;2023-07-31T11:22:34;1.20;;;1.10;;
71265;SDS011;59030;52.052;8.550;2023-07-31T11:25:02;1.03;;;1.03;;
71265;SDS011;59030;52.052;8.550;2023-07-31T11:27:30;1.17;;;1.07;;
71265;SDS011;59030;52.052;8.550;2023-07-31T11:30:00;1.40;;;1.30;;
71265;SDS011;59030;52.052;8.550;2023-07-31T11:32:28;1.33;;;1.23;;
71265;SDS011;59030;52.052;8.550;2023-07-31T11:34:55;1.33;;;1.23;;
71265;SDS011;59030;52.052;8.550;2023-07-31T11:37:23;1.27;;;1.17;;
71265;SDS011;59030;52.052;8.550;2023-07-31T11:39:59;1.33;;;1.23;;
71265;SDS011;59030;52.052;8.550;2023-07-31T11:42:27;1.60;;;1.50;;
71265;SDS011;59030;52.052;8.550;2023-07-31T11:44:54;1.40;;;1.30;;
71265;SDS011;59030;52.052;8.550;2023-07-31T11:47:21;1.23;;;1.20;;
71265;SDS011;59030;52.052;8.550;2023-07-31T11:49:49;1.27;;;1.17;;
71265;SDS011;59030;52.052;8.550;2023-07-31T11:52:16;1.40;;;1.30;;
71265;SDS011;59030;52.052;8.550;2023-07-31T11:54:45;1.27;;;1.17;;
71265;SDS011;59030;52.052;8.550;2023-07-31T11:57:13;1.30;;;1.20;;
71265;SDS011;59030;52.052;8.550;2023-07-31T11:59:40;1.13;;;1.10;;
71265;SDS011;59030;52.052;8.550;2023-07-31T12:02:08;1.20;;;1.20;;
71265;SDS011;59030;52.052;8.550;2023-07-31T12:04:36;1.40;;;1.30;;
71265;SDS011;59030;52.052;8.550;2023-07-31T12:07:05;1.37;;;1.20;;
71265;SDS011;59030;52.052;8.550;2023-07-31T12:09:32;1.33;;;1.23;;
71265;SDS011;59030;52.052;8.550;2023-07-31T12:11:59;1.50;;;1.40;;
71265;SDS011;59030;52.052;8.550;2023-07-31T12:14:27;1.30;;;1.20;;
71265;SDS011;59030;52.052;8.550;2023-07-31T12:16:55;1.47;;;1.20;;
71265;SDS011;59030;52.052;8.550;2023-07-31T12:19:22;1.30;;;1.13;;
71265;SDS011;59030;52.052;8.550;2023-07-31T12:21:50;1.10;;;1.10;;
71265;SDS011;59030;52.052;8.550;2023-07-31T12:24:18;1.00;;;0.90;;
71265;SDS011;59030;52.052;8.550;2023-07-31T12:26:46;1.40;;;1.30;;
71265;SDS011;59030;52.052;8.550;2023-07-31T12:29:13;1.30;;;1.20;;
71265;SDS011;59030;52.052;8.550;2023-07-31T12:31:41;1.00;;;1.00;;
71265;SDS011;59030;52.052;8.550;2023-07-31T12:34:15;0.90;;;0.90;;
71265;SDS011;59030;52.052;8.550;2023-07-31T12:36:43;0.90;;;0.90;;
71265;SDS011;59030;52.052;8.550;2023-07-31T12:39:10;1.10;;;1.00;;
71265;SDS011;59030;52.052;8.550;2023-07-31T12:41:37;0.97;;;0.97;;
71265;SDS011;59030;52.052;8.550;2023-07-31T12:44:05;1.37;;;1.23;;
71265;SDS011;59030;52.052;8.550;2023-07-31T12:46:32;1.50;;;1.40;;
71265;SDS011;59030;52.052;8.550;2023-07-31T12:48:59;1.20;;;1.20;;
71265;SDS011;59030;52.052;8.550;2023-07-31T12:51:26;1.30;;;1.20;;
71265;SDS011;59030;52.052;8.550;2023-07-31T12:53:54;1.60;;;1.50;;
71265;SDS011;59030;52.052;8.550;2023-07-31T12:56:21;1.90;;;1.80;;
71265;SDS011;59030;52.052;8.550;2023-07-31T12:58:48;1.60;;;1.50;;
71265;SDS011;59030;52.052;8.550;2023-07-31T13:01:16;1.90;;;1.80;;
71265;SDS011;59030;52.052;8.550;2023-07-31T13:03:43;1.97;;;1.87;;
71265;SDS011;59030;52.052;8.550;2023-07-31T13:06:10;2.93;;;2.37;;
71265;SDS011;59030;52.052;8.550;2023-07-31T13:08:37;3.57;;;2.63;;
71265;SDS011;59030;52.052;8.550;2023-07-31T13:11:05;3.17;;;2.87;;
71265;SDS011;59030;52.052;8.550;2023-07-31T13:13:32;2.97;;;2.70;;
71265;SDS011;59030;52.052;8.550;2023-07-31T13:15:59;3.50;;;3.00;;
71265;SDS011;59030;52.052;8.550;2023-07-31T13:18:27;4.27;;;3.17;;
71265;SDS011;59030;52.052;8.550;2023-07-31T13:20:54;3.60;;;3.27;;
71265;SDS011;59030;52.052;8.550;2023-07-31T13:23:22;3.93;;;3.50;;
71265;SDS011;59030;52.052;8.550;2023-07-31T13:25:49;3.37;;;3.07;;
71265;SDS011;59030;52.052;8.550;2023-07-31T13:28:16;3.97;;;2.97;;
71265;SDS011;59030;52.052;8.550;2023-07-31T13:30:44;3.27;;;2.63;;
71265;SDS011;59030;52.052;8.550;2023-07-31T13:33:12;3.20;;;2.90;;
71265;SDS011;59030;52.052;8.550;2023-07-31T13:35:39;3.83;;;2.73;;
71265;SDS011;59030;52.052;8.550;2023-07-31T13:38:06;3.67;;;2.97;;
71265;SDS011;59030;52.052;8.550;2023-07-31T13:40:33;3.50;;;2.57;;
71265;SDS011;59030;52.052;8.550;2023-07-31T13:43:01;3.50;;;2.60;;
71265;SDS011;59030;52.052;8.550;2023-07-31T13:45:28;3.33;;;2.63;;
71265;SDS011;59030;52.052;8.550;2023-07-31T13:47:56;3.40;;;2.77;;
71265;SDS011;59030;52.052;8.550;2023-07-31T13:50:23;2.80;;;2.43;;
71265;SDS011;59030;52.052;8.550;2023-07-31T13:52:51;3.40;;;2.50;;
71265;SDS011;59030;52.052;8.550;2023-07-31T13:55:18;3.00;;;2.70;;
71265;SDS011;59030;52.052;8.550;2023-07-31T13:57:45;2.60;;;2.40;;
71265;SDS011;59030;52.052;8.550;2023-07-31T14:00:14;2.43;;;2.23;;
71265;SDS011;59030;52.052;8.550;2023-07-31T14:02:41;3.33;;;2.60;;
71265;SDS011;59030;52.052;8.550;2023-07-31T14:05:08;3.30;;;2.47;;
71265;SDS011;59030;52.052;8.550;2023-07-31T14:07:36;4.50;;;2.90;;
71265;SDS011;59030;52.052;8.550;2023-07-31T14:10:03;3.70;;;3.03;;
71265;SDS011;59030;52.052;8.550;2023-07-31T14:12:31;3.23;;;2.90;;
71265;SDS011;59030;52.052;8.550;2023-07-31T14:14:59;3.10;;;2.80;;
71265;SDS011;59030;52.052;8.550;2023-07-31T14:17:26;3.33;;;2.70;;
71265;SDS011;59030;52.052;8.550;2023-07-31T14:19:53;3.63;;;3.17;;
71265;SDS011;59030;52.052;8.550;2023-07-31T14:22:27;3.90;;;2.73;;
71265;SDS011;59030;52.052;8.550;2023-07-31T14:24:55;3.57;;;3.00;;
71265;SDS011;59030;52.052;8.550;2023-07-31T14:27:23;3.20;;;2.87;;
71265;SDS011;59030;52.052;8.550;2023-07-31T14:29:50;4.03;;;2.80;;
71265;SDS011;59030;52.052;8.550;2023-07-31T14:32:17;4.67;;;2.40;;
71265;SDS011;59030;52.052;8.550;2023-07-31T14:34:44;3.00;;;2.67;;
71265;SDS011;59030;52.052;8.550;2023-07-31T14:37:12;2.97;;;2.47;;
71265;SDS011;59030;52.052;8.550;2023-07-31T14:39:39;2.70;;;2.30;;
71265;SDS011;59030;52.052;8.550;2023-07-31T14:42:06;2.97;;;2.67;;
71265;SDS011;59030;52.052;8.550;2023-07-31T14:44:34;3.80;;;2.77;;
71265;SDS011;59030;52.052;8.550;2023-07-31T14:47:01;4.00;;;3.07;;
71265;SDS011;59030;52.052;8.550;2023-07-31T14:49:28;3.03;;;2.73;;
71265;SDS011;59030;52.052;8.550;2023-07-31T14:51:55;2.87;;;2.60;;
71265;SDS011;59030;52.052;8.550;2023-07-31T14:54:23;3.07;;;2.77;;